sensor_id;sensor_type;location;lat;lon;timestamp;P1;durP1;ratioP1;P2;durP2;ratioP2
42662;SDS011;44330;51.360;6.686;2023-06-22T00:00:55;12.90;;;7.78;;
42662;SDS011;44330;51.360;6.686;2023-06-22T00:03:21;12.40;;;8.23;;
42662;SDS011;44330;51.360;6.686;2023-06-22T00:05:49;11.48;;;7.50;;
42662;SDS011;44330;51.360;6.686;2023-06-22T00:08:15;12.18;;;7.20;;
42662;SDS011;44330;51.360;6.686;2023-06-22T00:10:41;10.45;;;7.95;;
42662;SDS011;44330;51.360;6.686;2023-06-22T00:13:07;12.07;;;8.50;;
42662;SDS011;44330;51.360;6.686;2023-06-22T00:15:34;11.40;;;7.28;;
42662;SDS011;44330;51.360;6.686;2023-06-22T00:18:00;15.43;;;9.00;;
42662;SDS011;44330;51.360;6.686;2023-06-22T00:20:27;19.63;;;8.32;;
42662;SDS011;44330;51.360;6.686;2023-06-22T00:22:59;16.92;;;8.20;;
42662;SDS011;44330;51.360;6.686;2023-06-22T00:25:25;12.52;;;7.88;;
42662;SDS011;44330;51.360;6.686;2023-06-22T00:27:51;13.20;;;7.70;;
42662;SDS011;44330;51.360;6.686;2023-06-22T00:30:17;12.00;;;8.20;;
42662;SDS011;44330;51.360;6.686;2023-06-22T00:32:43;14.20;;;7.72;;
42662;SDS011;44330;51.360;6.686;2023-06-22T00:35:09;11.05;;;7.60;;
42662;SDS011;44330;51.360;6.686;2023-06-22T00:37:36;13.02;;;7.93;;
42662;SDS011;44330;51.360;6.686;2023-06-22T00:40:03;11.93;;;6.95;;
42662;SDS011;44330;51.360;6.686;2023-06-22T00:42:30;9.65;;;7.40;;
42662;SDS011;44330;51.360;6.686;2023-06-22T00:44:55;9.25;;;7.15;;
42662;SDS011;44330;51.360;6.686;2023-06-22T00:47:21;9.90;;;7.38;;
42662;SDS011;44330;51.360;6.686;2023-06-22T00:49:47;11.85;;;8.73;;
42662;SDS011;44330;51.360;6.686;2023-06-22T00:52:16;11.10;;;7.85;;
42662;SDS011;44330;51.360;6.686;2023-06-22T00:54:46;12.07;;;8.02;;
42662;SDS011;44330;51.360;6.686;2023-06-22T00:57:14;9.98;;;7.30;;
42662;SDS011;44330;51.360;6.686;2023-06-22T01:02:12;12.18;;;7.53;;
42662;SDS011;44330;51.360;6.686;2023-06-22T01:04:38;9.85;;;6.32;;
42662;SDS011;44330;51.360;6.686;2023-06-22T01:10:07;14.93;;;8.15;;
42662;SDS011;44330;51.360;6.686;2023-06-22T01:12:40;12.57;;;8.68;;
42662;SDS011;44330;51.360;6.686;2023-06-22T01:17:39;11.63;;;7.97;;
42662;SDS011;44330;51.360;6.686;2023-06-22T01:20:08;14.65;;;8.65;;
42662;SDS011;44330;51.360;6.686;2023-06-22T01:25:32;13.50;;;8.70;;
42662;SDS011;44330;51.360;6.686;2023-06-22T01:31:24;14.80;;;9.07;;
42662;SDS011;44330;51.360;6.686;2023-06-22T01:33:52;12.93;;;8.90;;
42662;SDS011;44330;51.360;6.686;2023-06-22T01:36:20;13.80;;;8.30;;
42662;SDS011;44330;51.360;6.686;2023-06-22T01:38:47;9.75;;;6.60;;
42662;SDS011;44330;51.360;6.686;2023-06-22T01:41:14;12.55;;;8.23;;
42662;SDS011;44330;51.360;6.686;2023-06-22T01:43:41;11.80;;;8.23;;
42662;SDS011;44330;51.360;6.686;2023-06-22T01:46:08;13.95;;;8.45;;
42662;SDS011;44330;51.360;6.686;2023-06-22T01:48:34;16.45;;;9.57;;
42662;SDS011;44330;51.360;6.686;2023-06-22T01:51:00;13.73;;;7.07;;
42662;SDS011;44330;51.360;6.686;2023-06-22T01:53:26;16.88;;;9.32;;
42662;SDS011;44330;51.360;6.686;2023-06-22T01:55:52;12.48;;;8.10;;
42662;SDS011;44330;51.360;6.686;2023-06-22T01:58:17;10.98;;;9.00;;
42662;SDS011;44330;51.360;6.686;2023-06-22T02:00:48;15.13;;;9.35;;
42662;SDS011;44330;51.360;6.686;2023-06-22T02:03:29;14.38;;;9.98;;
42662;SDS011;44330;51.360;6.686;2023-06-22T02:06:05;13.48;;;9.27;;
42662;SDS011;44330;51.360;6.686;2023-06-22T02:08:39;15.05;;;10.13;;
42662;SDS011;44330;51.360;6.686;2023-06-22T02:11:07;15.82;;;10.10;;
42662;SDS011;44330;51.360;6.686;2023-06-22T02:13:36;16.02;;;9.93;;
42662;SDS011;44330;51.360;6.686;2023-06-22T02:16:02;14.40;;;9.85;;
42662;SDS011;44330;51.360;6.686;2023-06-22T02:18:28;16.27;;;10.35;;
42662;SDS011;44330;51.360;6.686;2023-06-22T02:20:54;16.10;;;10.48;;
42662;SDS011;44330;51.360;6.686;2023-06-22T02:23:19;20.10;;;10.30;;
42662;SDS011;44330;51.360;6.686;2023-06-22T02:25:45;17.55;;;11.00;;
42662;SDS011;44330;51.360;6.686;2023-06-22T02:28:10;16.70;;;10.98;;
42662;SDS011;44330;51.360;6.686;2023-06-22T02:30:36;14.88;;;10.18;;
42662;SDS011;44330;51.360;6.686;2023-06-22T02:33:02;15.73;;;10.20;;
42662;SDS011;44330;51.360;6.686;2023-06-22T02:35:28;17.85;;;10.48;;
42662;SDS011;44330;51.360;6.686;2023-06-22T02:40:25;20.02;;;11.02;;
42662;SDS011;44330;51.360;6.686;2023-06-22T02:42:51;17.60;;;10.68;;
42662;SDS011;44330;51.360;6.686;2023-06-22T02:45:17;13.70;;;10.05;;
42662;SDS011;44330;51.360;6.686;2023-06-22T02:47:42;16.33;;;10.02;;
42662;SDS011;44330;51.360;6.686;2023-06-22T02:50:08;18.45;;;11.27;;
42662;SDS011;44330;51.360;6.686;2023-06-22T02:52:34;20.58;;;10.38;;
42662;SDS011;44330;51.360;6.686;2023-06-22T02:55:00;20.52;;;11.57;;
42662;SDS011;44330;51.360;6.686;2023-06-22T02:57:25;16.35;;;10.77;;
42662;SDS011;44330;51.360;6.686;2023-06-22T02:59:51;19.83;;;11.43;;
42662;SDS011;44330;51.360;6.686;2023-06-22T03:02:16;16.52;;;11.38;;
42662;SDS011;44330;51.360;6.686;2023-06-22T03:04:42;16.90;;;11.43;;
42662;SDS011;44330;51.360;6.686;2023-06-22T03:07:08;18.38;;;10.57;;
42662;SDS011;44330;51.360;6.686;2023-06-22T03:09:34;23.73;;;11.65;;
42662;SDS011;44330;51.360;6.686;2023-06-22T03:11:59;20.65;;;10.27;;
42662;SDS011;44330;51.360;6.686;2023-06-22T03:14:25;18.60;;;12.40;;
42662;SDS011;44330;51.360;6.686;2023-06-22T03:16:51;17.88;;;10.65;;
42662;SDS011;44330;51.360;6.686;2023-06-22T03:19:16;15.93;;;12.30;;
42662;SDS011;44330;51.360;6.686;2023-06-22T03:21:42;20.13;;;12.98;;
42662;SDS011;44330;51.360;6.686;2023-06-22T03:24:07;20.95;;;12.05;;
42662;SDS011;44330;51.360;6.686;2023-06-22T03:26:33;13.50;;;10.88;;
42662;SDS011;44330;51.360;6.686;2023-06-22T03:28:59;19.02;;;12.07;;
42662;SDS011;44330;51.360;6.686;2023-06-22T03:31:25;24.17;;;12.07;;
42662;SDS011;44330;51.360;6.686;2023-06-22T03:33:51;25.17;;;12.52;;
42662;SDS011;44330;51.360;6.686;2023-06-22T03:36:17;28.88;;;13.48;;
42662;SDS011;44330;51.360;6.686;2023-06-22T03:38:46;25.48;;;13.00;;
42662;SDS011;44330;51.360;6.686;2023-06-22T03:41:12;19.52;;;13.75;;
42662;SDS011;44330;51.360;6.686;2023-06-22T03:43:38;23.48;;;14.45;;
42662;SDS011;44330;51.360;6.686;2023-06-22T03:46:04;17.92;;;12.30;;
42662;SDS011;44330;51.360;6.686;2023-06-22T03:48:29;21.88;;;13.68;;
42662;SDS011;44330;51.360;6.686;2023-06-22T03:50:55;30.63;;;15.63;;
42662;SDS011;44330;51.360;6.686;2023-06-22T03:53:20;30.90;;;16.13;;
42662;SDS011;44330;51.360;6.686;2023-06-22T03:55:50;33.60;;;17.80;;
42662;SDS011;44330;51.360;6.686;2023-06-22T03:58:20;30.65;;;17.45;;
42662;SDS011;44330;51.360;6.686;2023-06-22T04:00:50;31.70;;;17.08;;
42662;SDS011;44330;51.360;6.686;2023-06-22T04:03:16;29.75;;;16.50;;
42662;SDS011;44330;51.360;6.686;2023-06-22T04:05:45;29.30;;;16.52;;
42662;SDS011;44330;51.360;6.686;2023-06-22T04:08:12;30.05;;;15.32;;
42662;SDS011;44330;51.360;6.686;2023-06-22T04:10:38;34.88;;;18.15;;
42662;SDS011;44330;51.360;6.686;2023-06-22T04:13:04;25.98;;;16.50;;
42662;SDS011;44330;51.360;6.686;2023-06-22T04:15:29;28.25;;;15.55;;
42662;SDS011;44330;51.360;6.686;2023-06-22T04:17:55;26.08;;;16.15;;
42662;SDS011;44330;51.360;6.686;2023-06-22T04:20:21;27.27;;;16.63;;
42662;SDS011;44330;51.360;6.686;2023-06-22T04:22:48;27.05;;;16.00;;
42662;SDS011;44330;51.360;6.686;2023-06-22T04:25:13;24.35;;;15.60;;
42662;SDS011;44330;51.360;6.686;2023-06-22T04:27:39;19.85;;;14.02;;
42662;SDS011;44330;51.360;6.686;2023-06-22T04:30:08;24.33;;;14.23;;
42662;SDS011;44330;51.360;6.686;2023-06-22T04:35:01;22.23;;;14.38;;
42662;SDS011;44330;51.360;6.686;2023-06-22T04:37:29;15.48;;;12.50;;
42662;SDS011;44330;51.360;6.686;2023-06-22T04:39:55;18.05;;;11.77;;
42662;SDS011;44330;51.360;6.686;2023-06-22T04:42:20;23.23;;;14.50;;
42662;SDS011;44330;51.360;6.686;2023-06-22T04:44:46;20.33;;;14.32;;
42662;SDS011;44330;51.360;6.686;2023-06-22T04:47:11;24.58;;;14.68;;
42662;SDS011;44330;51.360;6.686;2023-06-22T04:49:37;19.23;;;13.90;;
42662;SDS011;44330;51.360;6.686;2023-06-22T04:52:03;23.20;;;15.38;;
42662;SDS011;44330;51.360;6.686;2023-06-22T04:54:30;18.70;;;12.18;;
42662;SDS011;44330;51.360;6.686;2023-06-22T04:57:02;17.20;;;13.10;;
42662;SDS011;44330;51.360;6.686;2023-06-22T04:59:29;19.65;;;13.85;;
42662;SDS011;44330;51.360;6.686;2023-06-22T05:01:56;20.40;;;14.85;;
42662;SDS011;44330;51.360;6.686;2023-06-22T05:04:23;22.08;;;14.15;;
42662;SDS011;44330;51.360;6.686;2023-06-22T05:06:50;23.80;;;15.38;;
42662;SDS011;44330;51.360;6.686;2023-06-22T05:09:16;18.58;;;11.88;;
42662;SDS011;44330;51.360;6.686;2023-06-22T05:11:42;17.88;;;13.77;;
42662;SDS011;44330;51.360;6.686;2023-06-22T05:14:08;24.15;;;15.23;;
42662;SDS011;44330;51.360;6.686;2023-06-22T05:16:34;22.65;;;13.70;;
42662;SDS011;44330;51.360;6.686;2023-06-22T05:19:01;18.60;;;13.77;;
42662;SDS011;44330;51.360;6.686;2023-06-22T05:21:28;22.45;;;13.88;;
42662;SDS011;44330;51.360;6.686;2023-06-22T05:23:54;18.40;;;13.13;;
42662;SDS011;44330;51.360;6.686;2023-06-22T05:26:24;25.45;;;14.38;;
42662;SDS011;44330;51.360;6.686;2023-06-22T05:28:51;15.95;;;12.27;;
42662;SDS011;44330;51.360;6.686;2023-06-22T05:31:17;21.75;;;14.55;;
42662;SDS011;44330;51.360;6.686;2023-06-22T05:33:44;23.13;;;14.93;;
42662;SDS011;44330;51.360;6.686;2023-06-22T05:36:10;22.88;;;13.20;;
42662;SDS011;44330;51.360;6.686;2023-06-22T05:38:37;18.95;;;14.23;;
42662;SDS011;44330;51.360;6.686;2023-06-22T05:41:03;24.92;;;13.77;;
42662;SDS011;44330;51.360;6.686;2023-06-22T05:43:29;25.58;;;13.55;;
42662;SDS011;44330;51.360;6.686;2023-06-22T05:45:54;25.92;;;13.50;;
42662;SDS011;44330;51.360;6.686;2023-06-22T05:48:20;19.80;;;14.85;;
42662;SDS011;44330;51.360;6.686;2023-06-22T05:50:46;16.25;;;13.65;;
42662;SDS011;44330;51.360;6.686;2023-06-22T05:53:11;18.40;;;14.45;;
42662;SDS011;44330;51.360;6.686;2023-06-22T05:55:37;17.33;;;13.85;;
42662;SDS011;44330;51.360;6.686;2023-06-22T05:58:02;23.27;;;13.60;;
42662;SDS011;44330;51.360;6.686;2023-06-22T06:00:28;20.77;;;12.52;;
42662;SDS011;44330;51.360;6.686;2023-06-22T06:02:54;24.73;;;13.40;;
42662;SDS011;44330;51.360;6.686;2023-06-22T06:05:20;23.90;;;14.43;;
42662;SDS011;44330;51.360;6.686;2023-06-22T06:07:45;19.15;;;13.63;;
42662;SDS011;44330;51.360;6.686;2023-06-22T06:10:11;21.42;;;13.65;;
42662;SDS011;44330;51.360;6.686;2023-06-22T06:12:37;19.08;;;13.60;;
42662;SDS011;44330;51.360;6.686;2023-06-22T06:15:03;19.65;;;12.85;;
42662;SDS011;44330;51.360;6.686;2023-06-22T06:17:29;25.65;;;13.85;;
42662;SDS011;44330;51.360;6.686;2023-06-22T06:19:55;20.25;;;13.60;;
42662;SDS011;44330;51.360;6.686;2023-06-22T06:22:21;18.20;;;12.40;;
42662;SDS011;44330;51.360;6.686;2023-06-22T06:24:48;15.88;;;11.43;;
42662;SDS011;44330;51.360;6.686;2023-06-22T06:27:14;18.65;;;12.68;;
42662;SDS011;44330;51.360;6.686;2023-06-22T06:29:40;19.33;;;12.23;;
42662;SDS011;44330;51.360;6.686;2023-06-22T06:32:06;18.65;;;12.43;;
42662;SDS011;44330;51.360;6.686;2023-06-22T06:34:32;21.15;;;13.68;;
42662;SDS011;44330;51.360;6.686;2023-06-22T06:36:57;18.15;;;13.25;;
42662;SDS011;44330;51.360;6.686;2023-06-22T06:39:23;16.77;;;13.13;;
42662;SDS011;44330;51.360;6.686;2023-06-22T06:41:49;15.65;;;12.82;;
42662;SDS011;44330;51.360;6.686;2023-06-22T06:44:14;19.73;;;13.88;;
42662;SDS011;44330;51.360;6.686;2023-06-22T06:46:40;22.17;;;11.57;;
42662;SDS011;44330;51.360;6.686;2023-06-22T06:49:07;21.23;;;12.10;;
42662;SDS011;44330;51.360;6.686;2023-06-22T06:51:32;17.25;;;11.13;;
42662;SDS011;44330;51.360;6.686;2023-06-22T06:53:58;19.48;;;11.02;;
42662;SDS011;44330;51.360;6.686;2023-06-22T06:56:23;15.85;;;10.05;;
42662;SDS011;44330;51.360;6.686;2023-06-22T06:58:49;15.30;;;10.73;;
42662;SDS011;44330;51.360;6.686;2023-06-22T07:01:16;17.05;;;11.50;;
42662;SDS011;44330;51.360;6.686;2023-06-22T07:03:41;16.30;;;11.60;;
42662;SDS011;44330;51.360;6.686;2023-06-22T07:06:08;18.27;;;12.00;;
42662;SDS011;44330;51.360;6.686;2023-06-22T07:08:33;15.90;;;12.45;;
42662;SDS011;44330;51.360;6.686;2023-06-22T07:11:01;15.63;;;12.05;;
42662;SDS011;44330;51.360;6.686;2023-06-22T07:13:26;21.05;;;13.95;;
42662;SDS011;44330;51.360;6.686;2023-06-22T07:15:52;20.17;;;13.70;;
42662;SDS011;44330;51.360;6.686;2023-06-22T07:18:18;26.00;;;15.20;;
42662;SDS011;44330;51.360;6.686;2023-06-22T07:20:43;23.67;;;14.93;;
42662;SDS011;44330;51.360;6.686;2023-06-22T07:23:09;29.63;;;15.25;;
42662;SDS011;44330;51.360;6.686;2023-06-22T07:25:34;28.55;;;14.85;;
42662;SDS011;44330;51.360;6.686;2023-06-22T07:28:01;26.17;;;15.82;;
42662;SDS011;44330;51.360;6.686;2023-06-22T07:30:31;33.47;;;17.90;;
42662;SDS011;44330;51.360;6.686;2023-06-22T07:32:58;30.30;;;16.05;;
42662;SDS011;44330;51.360;6.686;2023-06-22T07:35:28;23.30;;;15.77;;
42662;SDS011;44330;51.360;6.686;2023-06-22T07:37:54;23.60;;;16.08;;
42662;SDS011;44330;51.360;6.686;2023-06-22T07:40:19;20.95;;;16.38;;
42662;SDS011;44330;51.360;6.686;2023-06-22T07:42:45;22.58;;;16.45;;
42662;SDS011;44330;51.360;6.686;2023-06-22T07:45:13;22.83;;;15.63;;
42662;SDS011;44330;51.360;6.686;2023-06-22T07:47:53;27.95;;;17.42;;
42662;SDS011;44330;51.360;6.686;2023-06-22T07:50:19;37.45;;;21.80;;
42662;SDS011;44330;51.360;6.686;2023-06-22T07:52:45;51.22;;;27.42;;
42662;SDS011;44330;51.360;6.686;2023-06-22T07:55:10;39.22;;;20.95;;
42662;SDS011;44330;51.360;6.686;2023-06-22T07:57:36;49.38;;;27.17;;
42662;SDS011;44330;51.360;6.686;2023-06-22T08:00:03;44.25;;;25.80;;
42662;SDS011;44330;51.360;6.686;2023-06-22T08:02:38;33.90;;;22.02;;
42662;SDS011;44330;51.360;6.686;2023-06-22T08:05:05;29.10;;;20.13;;
42662;SDS011;44330;51.360;6.686;2023-06-22T08:07:33;30.87;;;20.20;;
42662;SDS011;44330;51.360;6.686;2023-06-22T08:09:59;28.45;;;20.17;;
42662;SDS011;44330;51.360;6.686;2023-06-22T08:12:25;29.13;;;19.98;;
42662;SDS011;44330;51.360;6.686;2023-06-22T08:14:50;33.90;;;20.80;;
42662;SDS011;44330;51.360;6.686;2023-06-22T08:17:16;26.73;;;20.08;;
42662;SDS011;44330;51.360;6.686;2023-06-22T08:19:41;28.42;;;19.48;;
42662;SDS011;44330;51.360;6.686;2023-06-22T08:22:07;25.88;;;19.80;;
42662;SDS011;44330;51.360;6.686;2023-06-22T08:24:32;24.92;;;18.98;;
42662;SDS011;44330;51.360;6.686;2023-06-22T08:26:58;23.45;;;18.00;;
42662;SDS011;44330;51.360;6.686;2023-06-22T08:29:24;25.30;;;19.08;;
42662;SDS011;44330;51.360;6.686;2023-06-22T08:31:49;25.60;;;19.35;;
42662;SDS011;44330;51.360;6.686;2023-06-22T08:34:15;24.20;;;18.48;;
42662;SDS011;44330;51.360;6.686;2023-06-22T08:36:40;27.30;;;18.23;;
42662;SDS011;44330;51.360;6.686;2023-06-22T08:39:10;28.25;;;18.45;;
42662;SDS011;44330;51.360;6.686;2023-06-22T08:41:35;24.80;;;16.63;;
42662;SDS011;44330;51.360;6.686;2023-06-22T08:44:01;25.60;;;16.15;;
42662;SDS011;44330;51.360;6.686;2023-06-22T08:46:27;26.95;;;15.70;;
42662;SDS011;44330;51.360;6.686;2023-06-22T08:48:56;29.73;;;19.05;;
42662;SDS011;44330;51.360;6.686;2023-06-22T08:51:22;28.08;;;18.60;;
42662;SDS011;44330;51.360;6.686;2023-06-22T08:53:49;31.02;;;18.70;;
42662;SDS011;44330;51.360;6.686;2023-06-22T08:56:14;28.73;;;19.75;;
42662;SDS011;44330;51.360;6.686;2023-06-22T08:58:40;28.58;;;19.35;;
42662;SDS011;44330;51.360;6.686;2023-06-22T09:01:05;28.98;;;17.90;;
42662;SDS011;44330;51.360;6.686;2023-06-22T09:03:31;28.17;;;18.42;;
42662;SDS011;44330;51.360;6.686;2023-06-22T09:05:58;27.77;;;17.45;;
42662;SDS011;44330;51.360;6.686;2023-06-22T09:08:24;26.30;;;17.95;;
42662;SDS011;44330;51.360;6.686;2023-06-22T09:10:49;23.80;;;16.33;;
42662;SDS011;44330;51.360;6.686;2023-06-22T09:13:15;26.05;;;17.55;;
42662;SDS011;44330;51.360;6.686;2023-06-22T09:15:40;26.75;;;15.65;;
42662;SDS011;44330;51.360;6.686;2023-06-22T09:18:06;28.08;;;16.63;;
42662;SDS011;44330;51.360;6.686;2023-06-22T09:20:34;34.65;;;20.48;;
42662;SDS011;44330;51.360;6.686;2023-06-22T09:23:00;24.23;;;18.65;;
42662;SDS011;44330;51.360;6.686;2023-06-22T09:25:26;26.60;;;18.45;;
42662;SDS011;44330;51.360;6.686;2023-06-22T09:27:51;26.35;;;18.58;;
42662;SDS011;44330;51.360;6.686;2023-06-22T09:30:18;25.92;;;18.27;;
42662;SDS011;44330;51.360;6.686;2023-06-22T09:32:44;26.13;;;18.35;;
42662;SDS011;44330;51.360;6.686;2023-06-22T09:35:09;28.38;;;19.10;;
42662;SDS011;44330;51.360;6.686;2023-06-22T09:37:37;26.07;;;18.53;;
42662;SDS011;44330;51.360;6.686;2023-06-22T09:40:03;20.60;;;15.05;;
42662;SDS011;44330;51.360;6.686;2023-06-22T09:42:37;22.90;;;16.10;;
42662;SDS011;44330;51.360;6.686;2023-06-22T09:45:04;24.17;;;17.92;;
42662;SDS011;44330;51.360;6.686;2023-06-22T09:47:30;25.55;;;17.60;;
42662;SDS011;44330;51.360;6.686;2023-06-22T09:49:56;23.52;;;17.40;;
42662;SDS011;44330;51.360;6.686;2023-06-22T09:52:21;22.75;;;16.77;;
42662;SDS011;44330;51.360;6.686;2023-06-22T09:54:47;27.00;;;16.85;;
42662;SDS011;44330;51.360;6.686;2023-06-22T09:57:13;20.17;;;15.02;;
42662;SDS011;44330;51.360;6.686;2023-06-22T09:59:38;22.95;;;16.35;;
42662;SDS011;44330;51.360;6.686;2023-06-22T10:02:06;20.48;;;15.32;;
42662;SDS011;44330;51.360;6.686;2023-06-22T10:04:33;20.67;;;14.07;;
42662;SDS011;44330;51.360;6.686;2023-06-22T10:06:59;17.65;;;14.65;;
42662;SDS011;44330;51.360;6.686;2023-06-22T10:09:26;22.13;;;15.18;;
42662;SDS011;44330;51.360;6.686;2023-06-22T10:11:51;22.60;;;14.90;;
42662;SDS011;44330;51.360;6.686;2023-06-22T10:14:17;19.25;;;14.77;;
42662;SDS011;44330;51.360;6.686;2023-06-22T10:16:44;20.75;;;14.32;;
42662;SDS011;44330;51.360;6.686;2023-06-22T10:19:09;21.23;;;15.68;;
42662;SDS011;44330;51.360;6.686;2023-06-22T10:21:35;22.80;;;14.15;;
42662;SDS011;44330;51.360;6.686;2023-06-22T10:24:01;20.23;;;14.93;;
42662;SDS011;44330;51.360;6.686;2023-06-22T10:26:33;20.63;;;13.75;;
42662;SDS011;44330;51.360;6.686;2023-06-22T10:28:59;18.23;;;13.98;;
42662;SDS011;44330;51.360;6.686;2023-06-22T10:31:25;17.63;;;13.25;;
42662;SDS011;44330;51.360;6.686;2023-06-22T10:33:53;17.73;;;14.15;;
42662;SDS011;44330;51.360;6.686;2023-06-22T10:36:19;21.27;;;15.27;;
42662;SDS011;44330;51.360;6.686;2023-06-22T10:38:44;21.35;;;14.80;;
42662;SDS011;44330;51.360;6.686;2023-06-22T10:41:11;23.10;;;13.80;;
42662;SDS011;44330;51.360;6.686;2023-06-22T10:43:37;13.80;;;11.25;;
42662;SDS011;44330;51.360;6.686;2023-06-22T10:46:03;17.63;;;12.95;;
42662;SDS011;44330;51.360;6.686;2023-06-22T10:48:29;17.27;;;13.23;;
42662;SDS011;44330;51.360;6.686;2023-06-22T10:50:54;17.08;;;12.50;;
42662;SDS011;44330;51.360;6.686;2023-06-22T10:53:20;20.60;;;13.23;;
42662;SDS011;44330;51.360;6.686;2023-06-22T10:55:46;17.00;;;13.35;;
42662;SDS011;44330;51.360;6.686;2023-06-22T10:58:12;15.15;;;13.32;;
42662;SDS011;44330;51.360;6.686;2023-06-22T11:00:38;17.98;;;12.65;;
42662;SDS011;44330;51.360;6.686;2023-06-22T11:03:03;19.83;;;13.18;;
42662;SDS011;44330;51.360;6.686;2023-06-22T11:05:29;21.92;;;13.77;;
42662;SDS011;44330;51.360;6.686;2023-06-22T11:07:54;18.73;;;13.27;;
42662;SDS011;44330;51.360;6.686;2023-06-22T11:10:20;23.13;;;14.68;;
42662;SDS011;44330;51.360;6.686;2023-06-22T11:12:45;18.00;;;13.18;;
42662;SDS011;44330;51.360;6.686;2023-06-22T11:15:11;13.05;;;10.75;;
42662;SDS011;44330;51.360;6.686;2023-06-22T11:17:37;15.88;;;12.18;;
42662;SDS011;44330;51.360;6.686;2023-06-22T11:20:03;23.08;;;15.15;;
42662;SDS011;44330;51.360;6.686;2023-06-22T11:22:36;28.08;;;16.85;;
42662;SDS011;44330;51.360;6.686;2023-06-22T11:25:04;34.10;;;18.25;;
42662;SDS011;44330;51.360;6.686;2023-06-22T11:27:30;33.97;;;21.10;;
42662;SDS011;44330;51.360;6.686;2023-06-22T11:29:56;36.15;;;20.80;;
42662;SDS011;44330;51.360;6.686;2023-06-22T11:32:22;32.83;;;21.20;;
42662;SDS011;44330;51.360;6.686;2023-06-22T11:34:48;36.35;;;22.30;;
42662;SDS011;44330;51.360;6.686;2023-06-22T11:37:13;24.20;;;16.80;;
42662;SDS011;44330;51.360;6.686;2023-06-22T11:39:40;29.10;;;21.08;;
42662;SDS011;44330;51.360;6.686;2023-06-22T11:42:06;26.58;;;19.90;;
42662;SDS011;44330;51.360;6.686;2023-06-22T11:44:32;37.25;;;27.48;;
42662;SDS011;44330;51.360;6.686;2023-06-22T11:46:57;35.33;;;24.42;;
42662;SDS011;44330;51.360;6.686;2023-06-22T11:49:23;33.10;;;24.48;;
42662;SDS011;44330;51.360;6.686;2023-06-22T11:51:49;35.55;;;23.70;;
42662;SDS011;44330;51.360;6.686;2023-06-22T11:54:14;40.83;;;29.00;;
42662;SDS011;44330;51.360;6.686;2023-06-22T11:56:40;45.80;;;30.60;;
42662;SDS011;44330;51.360;6.686;2023-06-22T11:59:05;38.53;;;27.55;;
42662;SDS011;44330;51.360;6.686;2023-06-22T12:01:31;39.90;;;28.42;;
42662;SDS011;44330;51.360;6.686;2023-06-22T12:03:58;37.67;;;28.90;;
42662;SDS011;44330;51.360;6.686;2023-06-22T12:06:24;32.00;;;25.88;;
42662;SDS011;44330;51.360;6.686;2023-06-22T12:08:49;32.90;;;24.95;;
42662;SDS011;44330;51.360;6.686;2023-06-22T12:11:15;36.97;;;25.77;;
42662;SDS011;44330;51.360;6.686;2023-06-22T12:13:40;37.90;;;32.03;;
42662;SDS011;44330;51.360;6.686;2023-06-22T12:16:06;41.72;;;31.38;;
42662;SDS011;44330;51.360;6.686;2023-06-22T12:18:32;44.15;;;32.00;;
42662;SDS011;44330;51.360;6.686;2023-06-22T12:20:57;41.05;;;30.75;;
42662;SDS011;44330;51.360;6.686;2023-06-22T12:23:23;51.42;;;35.25;;
42662;SDS011;44330;51.360;6.686;2023-06-22T12:25:48;57.83;;;38.33;;
42662;SDS011;44330;51.360;6.686;2023-06-22T12:28:14;51.28;;;37.15;;
42662;SDS011;44330;51.360;6.686;2023-06-22T12:30:40;48.22;;;35.95;;
42662;SDS011;44330;51.360;6.686;2023-06-22T12:33:06;52.60;;;36.60;;
42662;SDS011;44330;51.360;6.686;2023-06-22T12:35:31;48.42;;;35.33;;
42662;SDS011;44330;51.360;6.686;2023-06-22T12:37:56;58.05;;;37.15;;
42662;SDS011;44330;51.360;6.686;2023-06-22T12:40:22;56.70;;;37.95;;
42662;SDS011;44330;51.360;6.686;2023-06-22T12:42:48;48.92;;;35.78;;
42662;SDS011;44330;51.360;6.686;2023-06-22T12:45:14;49.47;;;35.67;;
42662;SDS011;44330;51.360;6.686;2023-06-22T12:47:40;53.78;;;35.58;;
42662;SDS011;44330;51.360;6.686;2023-06-22T12:50:05;50.03;;;34.30;;
42662;SDS011;44330;51.360;6.686;2023-06-22T12:52:31;49.80;;;35.42;;
42662;SDS011;44330;51.360;6.686;2023-06-22T12:57:32;50.20;;;33.72;;
42662;SDS011;44330;51.360;6.686;2023-06-22T12:59:58;35.10;;;26.85;;
42662;SDS011;44330;51.360;6.686;2023-06-22T13:02:25;43.30;;;33.17;;
42662;SDS011;44330;51.360;6.686;2023-06-22T13:04:51;43.33;;;31.70;;
42662;SDS011;44330;51.360;6.686;2023-06-22T13:07:16;34.65;;;29.13;;
42662;SDS011;44330;51.360;6.686;2023-06-22T13:09:42;42.17;;;30.90;;
42662;SDS011;44330;51.360;6.686;2023-06-22T13:12:08;38.60;;;29.27;;
42662;SDS011;44330;51.360;6.686;2023-06-22T13:14:33;40.42;;;32.40;;
42662;SDS011;44330;51.360;6.686;2023-06-22T13:17:00;46.47;;;33.90;;
42662;SDS011;44330;51.360;6.686;2023-06-22T13:19:26;42.17;;;32.75;;
42662;SDS011;44330;51.360;6.686;2023-06-22T13:21:53;48.00;;;34.88;;
42662;SDS011;44330;51.360;6.686;2023-06-22T13:24:19;43.47;;;34.55;;
42662;SDS011;44330;51.360;6.686;2023-06-22T13:26:44;43.92;;;34.03;;
42662;SDS011;44330;51.360;6.686;2023-06-22T13:29:10;41.42;;;33.65;;
42662;SDS011;44330;51.360;6.686;2023-06-22T13:31:36;43.15;;;34.60;;
42662;SDS011;44330;51.360;6.686;2023-06-22T13:34:02;37.25;;;29.92;;
42662;SDS011;44330;51.360;6.686;2023-06-22T13:36:28;50.13;;;34.22;;
42662;SDS011;44330;51.360;6.686;2023-06-22T13:38:55;47.38;;;36.28;;
42662;SDS011;44330;51.360;6.686;2023-06-22T13:41:21;53.80;;;37.67;;
42662;SDS011;44330;51.360;6.686;2023-06-22T13:43:46;46.83;;;36.58;;
42662;SDS011;44330;51.360;6.686;2023-06-22T13:46:12;51.22;;;37.90;;
42662;SDS011;44330;51.360;6.686;2023-06-22T13:48:37;47.28;;;34.97;;
42662;SDS011;44330;51.360;6.686;2023-06-22T13:51:03;41.78;;;33.42;;
42662;SDS011;44330;51.360;6.686;2023-06-22T13:53:29;39.50;;;33.85;;
42662;SDS011;44330;51.360;6.686;2023-06-22T13:55:55;44.95;;;31.98;;
42662;SDS011;44330;51.360;6.686;2023-06-22T13:58:21;48.22;;;37.63;;
42662;SDS011;44330;51.360;6.686;2023-06-22T14:00:46;49.35;;;37.97;;
42662;SDS011;44330;51.360;6.686;2023-06-22T14:03:14;45.17;;;35.92;;
42662;SDS011;44330;51.360;6.686;2023-06-22T14:05:41;48.05;;;37.65;;
42662;SDS011;44330;51.360;6.686;2023-06-22T14:08:07;37.60;;;31.58;;
42662;SDS011;44330;51.360;6.686;2023-06-22T14:10:34;46.78;;;36.42;;
42662;SDS011;44330;51.360;6.686;2023-06-22T14:12:59;46.35;;;36.75;;
42662;SDS011;44330;51.360;6.686;2023-06-22T14:15:25;45.20;;;36.33;;
42662;SDS011;44330;51.360;6.686;2023-06-22T14:17:51;42.80;;;34.67;;
42662;SDS011;44330;51.360;6.686;2023-06-22T14:20:17;48.50;;;36.40;;
42662;SDS011;44330;51.360;6.686;2023-06-22T14:22:43;41.40;;;35.53;;
42662;SDS011;44330;51.360;6.686;2023-06-22T14:25:09;43.05;;;34.40;;
42662;SDS011;44330;51.360;6.686;2023-06-22T14:27:34;41.13;;;34.78;;
42662;SDS011;44330;51.360;6.686;2023-06-22T14:30:00;41.47;;;33.28;;
42662;SDS011;44330;51.360;6.686;2023-06-22T14:32:27;42.58;;;35.83;;
42662;SDS011;44330;51.360;6.686;2023-06-22T14:37:20;40.42;;;34.08;;
42662;SDS011;44330;51.360;6.686;2023-06-22T14:39:45;43.00;;;35.40;;
42662;SDS011;44330;51.360;6.686;2023-06-22T14:42:14;45.33;;;37.10;;